Time;durP1;ratioP1;P1;durP2;ratioP2;P2;SDS_P1;SDS_P2;PMS_P1;PMS_P2;Temp;Humidity;BMP_temperature;BMP_pressure;BME280_temperature;BME280_humidity;BME280_pressure;Samples;Min_cycle;Max_cycle;Signal;HPM_P1;HPM_P2
2023/07/18 00:00:27;;;;;;;3.10;1.00;;;;;;;13.18;100.00;101070.63;5113456;28;20019;-91
2023/07/18 00:02:53;;;;;;;7.88;1.55;;;;;;;13.19;100.00;101070.53;5111021;28;20477;-91
2023/07/18 00:05:18;;;;;;;2.60;0.77;;;;;;;13.24;100.00;101065.91;5111154;28;20118;-91
2023/07/18 00:07:44;;;;;;;6.20;1.00;;;;;;;13.18;100.00;101065.44;5112115;28;20100;-91
2023/07/18 00:10:10;;;;;;;5.18;1.05;;;;;;;13.14;100.00;101069.13;5111151;28;20024;-91
2023/07/18 00:12:37;;;;;;;7.47;0.90;;;;;;;13.13;100.00;101065.69;5112298;28;20496;-92
2023/07/18 00:15:04;;;;;;;6.25;1.10;;;;;;;13.17;100.00;101064.59;5110848;28;20024;-91
2023/07/18 00:17:31;;;;;;;25.42;1.13;;;;;;;13.10;100.00;101063.28;5113154;28;20038;-91
2023/07/18 00:19:58;;;;;;;5.18;0.95;;;;;;;13.13;100.00;101050.16;5116418;28;20024;-91
2023/07/18 00:22:23;;;;;;;4.85;0.80;;;;;;;13.11;100.00;101046.81;5114902;28;20027;-91
2023/07/18 00:24:49;;;;;;;5.40;1.15;;;;;;;13.14;100.00;101050.97;5116396;28;20028;-91
2023/07/18 00:27:16;;;;;;;3.10;0.80;;;;;;;13.18;100.00;101055.88;5116196;28;20034;-91
2023/07/18 00:29:42;;;;;;;2.40;0.70;;;;;;;13.06;100.00;101046.25;5116219;28;20362;-91
2023/07/18 00:32:07;;;;;;;8.50;1.75;;;;;;;13.10;100.00;101042.56;5115909;28;20027;-91
2023/07/18 00:34:33;;;;;;;5.40;0.90;;;;;;;13.10;100.00;101028.78;5115972;28;20040;-91
2023/07/18 00:36:58;;;;;;;6.88;1.60;;;;;;;13.09;100.00;101029.69;5116109;28;20041;-91
2023/07/18 00:39:24;;;;;;;6.43;1.23;;;;;;;13.07;100.00;101034.97;5116108;28;20354;-91
2023/07/18 00:41:49;;;;;;;7.20;1.75;;;;;;;13.06;100.00;101038.47;5116101;28;20028;-91
2023/07/18 00:44:15;;;;;;;3.05;1.10;;;;;;;13.03;100.00;101030.88;5114479;28;20019;-91
2023/07/18 00:46:41;;;;;;;6.32;1.23;;;;;;;12.99;100.00;101037.16;5115606;28;20477;-91
2023/07/18 00:49:08;;;;;;;8.85;1.35;;;;;;;12.96;100.00;101040.75;5115952;28;20106;-91
2023/07/18 00:51:33;;;;;;;6.50;1.48;;;;;;;12.98;100.00;101040.69;5115954;28;20023;-91
2023/07/18 00:53:59;;;;;;;5.25;1.00;;;;;;;12.98;100.00;101025.97;5114370;28;20108;-91
2023/07/18 00:56:24;;;;;;;9.88;1.23;;;;;;;13.03;100.00;101033.47;5115664;28;20099;-91
2023/07/18 00:58:50;;;;;;;2.08;0.70;;;;;;;12.91;100.00;101029.00;5115497;28;20028;-91
2023/07/18 01:01:16;;;;;;;6.53;1.38;;;;;;;12.85;100.00;101030.19;5115493;28;20477;-91
2023/07/18 01:03:41;;;;;;;5.28;1.23;;;;;;;12.81;100.00;101029.53;5115422;28;20496;-91
2023/07/18 01:06:08;;;;;;;8.13;1.00;;;;;;;12.78;100.00;101026.28;5115568;28;20036;-91
2023/07/18 01:08:34;;;;;;;8.88;1.40;;;;;;;12.78;100.00;101021.94;5115494;28;20061;-92
2023/07/18 01:10:59;;;;;;;7.32;1.33;;;;;;;12.80;100.00;101020.09;5115487;28;20052;-91
2023/07/18 01:13:25;;;;;;;2.75;1.10;;;;;;;12.88;100.00;101018.81;5115520;28;20053;-91
2023/07/18 01:15:50;;;;;;;4.95;1.40;;;;;;;12.92;100.00;101015.09;5115264;28;20028;-91
2023/07/18 01:18:15;;;;;;;4.53;1.13;;;;;;;12.97;100.00;101024.31;5115229;28;20066;-91
2023/07/18 01:20:44;;;;;;;7.15;1.55;;;;;;;12.92;100.00;101017.69;5113824;28;20022;-91
2023/07/18 01:23:10;;;;;;;4.65;1.20;;;;;;;12.80;100.00;101020.09;5114982;28;20015;-91
2023/07/18 01:25:36;;;;;;;6.47;1.38;;;;;;;12.84;100.00;101010.38;5115226;28;20388;-91
2023/07/18 01:28:03;;;;;;;7.18;1.23;;;;;;;12.87;100.00;101006.78;5114616;28;20015;-91
2023/07/18 01:30:29;;;;;;;2.13;0.77;;;;;;;12.85;100.00;100994.75;5114904;28;20099;-92
2023/07/18 01:32:56;;;;;;;12.60;1.80;;;;;;;12.84;100.00;100993.06;5114754;28;20023;-91
2023/07/18 01:35:25;;;;;;;8.50;1.13;;;;;;;12.85;100.00;100994.75;5115015;28;20512;-91
2023/07/18 01:37:51;;;;;;;4.78;1.02;;;;;;;12.77;100.00;100996.94;5113577;28;20032;-92
2023/07/18 01:40:21;;;;;;;7.13;1.08;;;;;;;12.78;100.00;100988.25;5113575;28;20541;-92
2023/07/18 01:42:51;;;;;;;8.02;1.50;;;;;;;12.76;100.00;100984.09;5113419;28;20027;-91
2023/07/18 01:45:21;;;;;;;11.18;1.90;;;;;;;12.74;100.00;100978.97;5113412;28;20023;-91
2023/07/18 01:47:48;;;;;;;4.32;1.33;;;;;;;12.74;100.00;100980.75;5113344;28;20169;-92
2023/07/18 01:50:14;;;;;;;8.75;0.90;;;;;;;12.72;100.00;100980.00;5114703;28;20019;-91
2023/07/18 01:52:39;;;;;;;4.53;1.00;;;;;;;12.74;100.00;100976.41;5114291;28;20152;-91
2023/07/18 01:55:05;;;;;;;5.22;1.13;;;;;;;12.72;100.00;100980.81;5113344;28;20023;-92
2023/07/18 01:57:41;;;;;;;6.13;1.10;;;;;;;12.69;100.00;100977.59;5113189;28;20020;-91
2023/07/18 02:00:12;;;;;;;3.05;0.82;;;;;;;12.66;100.00;100970.84;5114535;28;20059;-92
2023/07/18 02:02:38;;;;;;;3.95;1.05;;;;;;;12.72;100.00;100972.22;5113037;28;20023;-91
2023/07/18 02:05:04;;;;;;;7.35;1.30;;;;;;;12.64;100.00;100980.44;5113012;28;20020;-91
2023/07/18 02:07:32;;;;;;;13.00;2.17;;;;;;;12.71;100.00;100974.00;5113000;28;20055;-91
2023/07/18 02:10:00;;;;;;;6.00;1.10;;;;;;;12.64;100.00;100970.09;5113050;28;20023;-91
2023/07/18 02:12:25;;;;;;;5.63;1.10;;;;;;;12.65;100.00;100969.16;5113271;28;20080;-91
2023/07/18 02:14:51;;;;;;;5.13;1.17;;;;;;;12.52;100.00;100966.44;5114188;28;20023;-92
2023/07/18 02:17:16;;;;;;;6.00;1.15;;;;;;;12.50;100.00;100962.28;5114194;28;20083;-91
2023/07/18 02:19:41;;;;;;;9.00;1.25;;;;;;;12.50;100.00;100962.28;5114155;28;20034;-91
2023/07/18 02:22:07;;;;;;;11.32;1.42;;;;;;;12.49;100.00;100960.63;5114029;28;20020;-91
2023/07/18 02:24:32;;;;;;;5.88;0.90;;;;;;;12.47;100.00;100957.28;5114393;28;20084;-91
2023/07/18 02:26:58;;;;;;;11.85;1.10;;;;;;;12.43;100.00;100947.06;5114124;28;20437;-91
2023/07/18 02:29:24;;;;;;;5.38;1.08;;;;;;;12.39;100.00;100952.53;5113942;28;20024;-91
2023/07/18 02:31:50;;;;;;;7.78;1.35;;;;;;;12.48;100.00;100945.97;5113861;28;20042;-91
2023/07/18 02:34:15;;;;;;;6.95;1.23;;;;;;;12.30;100.00;100942.69;5112457;28;20476;-91
2023/07/18 02:36:41;;;;;;;7.55;1.13;;;;;;;12.32;100.00;100949.44;5113718;28;20039;-91
2023/07/18 02:39:07;;;;;;;2.35;0.70;;;;;;;12.34;100.00;100947.63;5112256;28;20055;-91
2023/07/18 02:41:32;;;;;;;5.97;0.88;;;;;;;12.30;100.00;100951.28;5111466;28;20055;-91
2023/07/18 02:43:58;;;;;;;4.60;1.13;;;;;;;12.19;100.00;100948.47;5113597;28;20422;-91
2023/07/18 02:46:23;;;;;;;4.47;1.15;;;;;;;12.12;100.00;100945.41;5112067;28;20388;-92
2023/07/18 02:48:48;;;;;;;5.18;0.98;;;;;;;12.02;100.00;100946.81;5113482;28;20024;-91
2023/07/18 02:51:14;;;;;;;7.40;1.05;;;;;;;12.08;100.00;100945.66;5112092;28;20582;-91
2023/07/18 02:53:39;;;;;;;6.20;1.10;;;;;;;11.94;100.00;100947.25;5113305;28;20028;-92
2023/07/18 02:56:05;;;;;;;4.97;1.20;;;;;;;11.97;100.00;100946.22;5113273;28;20020;-91
2023/07/18 02:58:30;;;;;;;3.90;1.40;;;;;;;11.99;100.00;100945.22;5112112;28;20015;-91
2023/07/18 03:00:56;;;;;;;6.10;1.13;;;;;;;11.96;100.00;100940.22;5111828;28;20469;-91
2023/07/18 03:03:22;;;;;;;5.80;1.40;;;;;;;11.99;100.00;100939.22;5113162;28;20574;-91
2023/07/18 03:05:52;;;;;;;3.10;0.98;;;;;;;12.04;100.00;100938.97;5112911;28;20024;-91
2023/07/18 03:08:17;;;;;;;6.85;1.42;;;;;;;12.00;100.00;100935.75;5112842;28;20038;-91
2023/07/18 03:10:43;;;;;;;5.70;1.25;;;;;;;11.93;100.00;100927.47;5112851;28;20829;-91
2023/07/18 03:13:08;;;;;;;6.03;0.90;;;;;;;11.99;100.00;100921.94;5111541;28;20380;-92
2023/07/18 03:15:34;;;;;;;3.35;0.80;;;;;;;11.99;100.00;100927.13;5111588;28;20134;-91
2023/07/18 03:18:00;;;;;;;5.32;1.00;;;;;;;11.97;100.00;100933.28;5112784;28;20024;-91
2023/07/18 03:20:26;;;;;;;6.00;1.20;;;;;;;11.93;100.00;100931.81;5112801;28;20101;-92
2023/07/18 03:22:52;;;;;;;3.05;0.75;;;;;;;12.04;100.00;100944.16;5112576;28;20072;-92
2023/07/18 03:25:19;;;;;;;12.45;1.60;;;;;;;12.05;100.00;100940.66;5112550;28;20023;-91
2023/07/18 03:27:45;;;;;;;7.50;1.20;;;;;;;12.12;100.00;100947.13;5111573;28;20039;-91
2023/07/18 03:30:12;;;;;;;7.15;1.40;;;;;;;11.98;100.00;100940.97;5112525;28;20020;-91
2023/07/18 03:32:38;;;;;;;5.15;0.88;;;;;;;11.97;100.00;100938.47;5111327;28;20102;-91
2023/07/18 03:35:04;;;;;;;2.72;0.80;;;;;;;11.98;100.00;100938.41;5112559;28;20043;-91
2023/07/18 03:37:30;;;;;;;7.30;1.60;;;;;;;12.13;100.00;100933.28;5111199;28;20024;-91
2023/07/18 03:39:55;;;;;;;4.82;1.48;;;;;;;12.14;100.00;100922.88;5112436;28;20480;-92
2023/07/18 03:42:21;;;;;;;3.47;1.25;;;;;;;12.16;100.00;100938.28;5111116;28;20031;-91
2023/07/18 03:44:47;;;;;;;5.57;1.10;;;;;;;12.07;100.00;100933.63;5112364;28;20026;-91
2023/07/18 03:47:12;;;;;;;5.50;0.80;;;;;;;12.15;100.00;100931.47;5110968;28;20027;-91
2023/07/18 03:49:38;;;;;;;4.88;1.08;;;;;;;12.23;100.00;100924.09;5112190;28;20065;-92
2023/07/18 03:52:05;;;;;;;4.53;0.95;;;;;;;12.33;100.00;100937.34;5112297;28;20031;-91
2023/07/18 03:54:30;;;;;;;7.85;2.10;;;;;;;12.25;100.00;100936.94;5112571;28;20028;-92
2023/07/18 03:56:55;;;;;;;5.50;1.02;;;;;;;12.29;100.00;100928.06;5112272;28;20020;-92
2023/07/18 03:59:21;;;;;;;8.32;2.10;;;;;;;12.31;100.00;100927.06;5112248;28;20108;-91
2023/07/18 04:01:46;;;;;;;2.78;0.60;;;;;;;12.31;100.00;100936.59;5112187;28;20505;-91
2023/07/18 04:04:13;;;;;;;4.50;0.90;;;;;;;12.25;100.00;100931.78;5110781;28;20100;-91
2023/07/18 04:06:38;;;;;;;3.72;0.70;;;;;;;12.26;100.00;100929.09;5112036;28;20072;-91
2023/07/18 04:09:05;;;;;;;2.70;0.65;;;;;;;12.32;100.00;100930.50;5112430;28;20108;-91
2023/07/18 04:11:30;;;;;;;4.82;0.70;;;;;;;12.31;100.00;100932.25;5112188;28;20034;-91
2023/07/18 04:13:56;;;;;;;3.45;0.75;;;;;;;12.29;100.00;100931.53;5110784;28;20024;-91
2023/07/18 04:16:21;;;;;;;3.42;1.58;;;;;;;12.26;100.00;100928.25;5112038;28;20023;-91
2023/07/18 04:18:46;;;;;;;2.65;0.73;;;;;;;12.31;100.00;100921.06;5112151;28;20107;-91
2023/07/18 04:21:12;;;;;;;5.03;0.70;;;;;;;12.33;100.00;100917.47;5111885;28;20061;-91
2023/07/18 04:23:38;;;;;;;4.43;1.13;;;;;;;12.35;100.00;100913.03;5110701;28;20073;-91
2023/07/18 04:26:04;;;;;;;6.55;0.90;;;;;;;12.35;100.00;100914.78;5112029;28;20028;-91
2023/07/18 04:28:34;;;;;;;4.70;0.90;;;;;;;12.39;100.00;100918.88;5112059;28;20023;-91
2023/07/18 04:31:01;;;;;;;4.72;0.90;;;;;;;12.40;100.00;100916.19;5112038;28;20124;-92
2023/07/18 04:33:27;;;;;;;4.65;0.70;;;;;;;12.39;100.00;100914.53;5111749;28;20019;-91
2023/07/18 04:35:53;;;;;;;1.35;0.60;;;;;;;12.40;100.00;100911.00;5110661;28;20019;-91
2023/07/18 04:38:18;;;;;;;3.05;0.95;;;;;;;12.45;100.00;100912.50;5111939;28;20023;-91
2023/07/18 04:40:44;;;;;;;3.70;0.70;;;;;;;12.43;100.00;100903.06;5111943;28;20054;-91
2023/07/18 04:43:09;;;;;;;4.55;0.90;;;;;;;12.48;100.00;100901.97;5111766;28;20052;-92
2023/07/18 04:45:44;;;;;;;5.18;1.13;;;;;;;12.48;100.00;100902.78;5111771;28;20066;-92
2023/07/18 04:48:13;;;;;;;10.88;1.40;;;;;;;12.45;100.00;100890.03;5110437;28;20028;-91
2023/07/18 04:50:43;;;;;;;5.53;1.15;;;;;;;12.42;100.00;100898.81;5111854;28;20034;-92
2023/07/18 04:53:09;;;;;;;6.97;1.33;;;;;;;12.40;100.00;100895.47;5110433;28;20380;-92
2023/07/18 04:55:36;;;;;;;5.82;1.00;;;;;;;12.40;100.00;100898.06;5111838;28;20116;-91
2023/07/18 04:58:03;;;;;;;2.72;0.77;;;;;;;12.40;100.00;100898.06;5111760;28;20028;-92
2023/07/18 05:00:29;;;;;;;5.47;1.15;;;;;;;12.45;100.00;100894.38;5111719;28;20035;-91
2023/07/18 05:02:54;;;;;;;5.15;0.98;;;;;;;12.49;100.00;100893.31;5111664;28;20027;-91
2023/07/18 05:05:20;;;;;;;3.55;1.10;;;;;;;12.48;100.00;100889.03;5115446;28;20016;-92
2023/07/18 05:07:47;;;;;;;3.20;0.77;;;;;;;12.52;100.00;100893.13;5115467;28;20079;-92
2023/07/18 05:10:13;;;;;;;3.00;0.90;;;;;;;12.57;100.00;100891.09;5115282;28;20047;-93
2023/07/18 05:12:38;;;;;;;1.73;0.90;;;;;;;12.63;100.00;100877.75;5115460;28;20019;-92
2023/07/18 05:15:04;;;;;;;4.57;0.93;;;;;;;12.67;100.00;100876.66;5113901;28;20115;-91
2023/07/18 05:17:30;;;;;;;3.08;0.70;;;;;;;12.68;100.00;100877.50;5115388;28;20032;-91
2023/07/18 05:19:55;;;;;;;2.92;0.80;;;;;;;12.71;100.00;100870.41;5115138;28;20526;-91
2023/07/18 05:22:21;;;;;;;5.30;0.93;;;;;;;12.76;100.00;100878.72;5115027;28;20047;-91
2023/07/18 05:24:46;;;;;;;3.00;1.05;;;;;;;12.75;100.00;100873.63;5115047;28;20169;-92
2023/07/18 05:27:11;;;;;;;4.90;0.70;;;;;;;12.83;100.00;100887.78;5113594;28;20031;-91
2023/07/18 05:29:37;;;;;;;2.65;0.85;;;;;;;12.94;100.00;100868.19;5115077;28;20030;-92
2023/07/18 05:32:03;;;;;;;6.95;1.52;;;;;;;12.95;100.00;100864.66;5114788;28;20485;-92
2023/07/18 05:34:28;;;;;;;4.68;1.13;;;;;;;12.96;100.00;100864.56;5113304;28;20035;-91
2023/07/18 05:36:53;;;;;;;4.15;0.88;;;;;;;13.05;100.00;100873.56;5114848;28;20032;-91
2023/07/18 05:39:19;;;;;;;12.32;2.25;;;;;;;13.11;100.00;100864.56;5114737;28;20023;-91
2023/07/18 05:41:44;;;;;;;6.18;0.85;;;;;;;13.14;100.00;100864.38;5114712;28;20015;-92
2023/07/18 05:44:10;;;;;;;3.95;1.00;;;;;;;13.15;100.00;100866.03;5114745;28;20015;-91
2023/07/18 05:46:35;;;;;;;1.92;0.57;;;;;;;13.16;100.00;100863.34;5114403;28;20038;-91
2023/07/18 05:49:00;;;;;;;6.72;0.90;;;;;;;13.24;100.00;100866.31;5114495;28;20072;-92
2023/07/18 05:51:26;;;;;;;6.22;0.93;;;;;;;13.31;100.00;100855.59;5114517;28;20024;-92
2023/07/18 05:53:51;;;;;;;6.90;0.90;;;;;;;13.45;100.00;100861.56;5113219;28;20034;-91
2023/07/18 05:56:16;;;;;;;5.35;1.00;;;;;;;13.56;100.00;100866.09;5114505;28;20028;-91
2023/07/18 05:58:42;;;;;;;6.35;1.08;;;;;;;13.73;100.00;100867.63;5114530;28;20137;-92
2023/07/18 06:01:13;;;;;;;5.85;1.13;;;;;;;13.85;100.00;100865.97;5114067;28;20050;-91
2023/07/18 06:03:39;;;;;;;5.75;1.40;;;;;;;13.93;100.00;100868.94;5113057;28;20214;-92
2023/07/18 06:06:05;;;;;;;7.10;1.15;;;;;;;13.92;100.00;100867.25;5112920;28;20254;-91
2023/07/18 06:08:31;;;;;;;4.60;1.42;;;;;;;13.96;100.00;100868.72;5114190;28;20019;-92
2023/07/18 06:10:56;;;;;;;4.68;1.20;;;;;;;13.98;100.00;100863.44;5113996;28;20094;-92
2023/07/18 06:13:23;;;;;;;5.50;1.95;;;;;;;13.98;100.00;100869.47;5114024;28;20020;-92
2023/07/18 06:15:50;;;;;;;5.15;1.10;;;;;;;13.98;100.00;100864.28;5111345;28;20035;-91
2023/07/18 06:18:15;;;;;;;3.83;1.10;;;;;;;14.02;100.00;100857.97;5113983;28;20424;-92
2023/07/18 06:20:41;;;;;;;8.80;1.52;;;;;;;14.06;100.00;100862.00;5112750;28;20028;-91
2023/07/18 06:23:06;;;;;;;7.80;1.30;;;;;;;14.03;100.00;100861.38;5113818;28;20080;-91
2023/07/18 06:25:32;;;;;;;3.88;1.02;;;;;;;14.09;100.00;100856.63;5113764;28;20016;-91
2023/07/18 06:27:57;;;;;;;7.25;1.20;;;;;;;14.19;100.00;100849.06;5113738;28;20026;-91
2023/07/18 06:30:23;;;;;;;2.88;0.95;;;;;;;14.26;100.00;100852.06;5112392;28;20068;-91
2023/07/18 06:32:48;;;;;;;4.68;1.02;;;;;;;14.30;100.00;100856.13;5113659;28;20031;-91
2023/07/18 06:35:13;;;;;;;9.02;1.15;;;;;;;14.33;100.00;100858.53;5113650;28;20024;-91
2023/07/18 06:37:41;;;;;;;12.20;1.23;;;;;;;14.27;100.00;100861.53;5112168;28;20027;-91
2023/07/18 06:40:07;;;;;;;8.63;1.92;;;;;;;14.29;100.00;100854.50;5113542;28;20481;-92
2023/07/18 06:42:32;;;;;;;1.83;0.68;;;;;;;14.47;100.00;100853.25;5112182;28;20076;-91
2023/07/18 06:44:58;;;;;;;9.52;1.30;;;;;;;14.54;100.00;100857.13;5112087;28;20508;-91
2023/07/18 06:47:23;;;;;;;7.38;1.35;;;;;;;14.85;100.00;100855.03;5113276;28;20032;-91
2023/07/18 06:49:49;;;;;;;7.57;1.10;;;;;;;16.25;96.49;100861.50;5112041;28;20392;-91
2023/07/18 06:52:14;;;;;;;9.50;1.80;;;;;;;16.78;87.30;100857.59;5113288;28;20423;-92
2023/07/18 06:54:40;;;;;;;6.90;2.00;;;;;;;16.37;85.87;100853.72;5113026;28;20031;-91
2023/07/18 06:57:05;;;;;;;11.02;1.10;;;;;;;15.93;89.56;100855.25;5113305;28;20070;-91
2023/07/18 06:59:31;;;;;;;6.40;1.30;;;;;;;15.87;89.27;100847.88;5113065;28;20023;-91
2023/07/18 07:01:56;;;;;;;7.88;1.13;;;;;;;15.79;89.36;100849.28;5113093;28;20031;-91
2023/07/18 07:04:22;;;;;;;9.00;1.48;;;;;;;15.69;89.54;100847.44;5113021;28;20027;-91
2023/07/18 07:06:47;;;;;;;6.20;1.00;;;;;;;15.64;90.65;100850.38;5112771;28;20120;-92
2023/07/18 07:09:13;;;;;;;8.63;0.85;;;;;;;15.40;90.06;100853.78;5111777;28;20099;-91
2023/07/18 07:11:39;;;;;;;9.25;1.05;;;;;;;15.52;90.10;100861.66;5112917;28;20079;-92
2023/07/18 07:14:05;;;;;;;9.32;1.20;;;;;;;15.47;89.92;100850.75;5112715;28;20023;-92
2023/07/18 07:16:30;;;;;;;13.88;1.45;;;;;;;15.73;88.98;100852.34;5112870;28;20031;-92
2023/07/18 07:18:56;;;;;;;8.52;1.63;;;;;;;15.88;87.76;100857.38;5111579;28;20019;-91
2023/07/18 07:21:21;;;;;;;8.38;1.60;;;;;;;16.13;86.45;100857.22;5112666;28;20055;-92
2023/07/18 07:23:46;;;;;;;8.65;1.10;;;;;;;16.29;84.50;100850.84;5112765;28;20466;-92
2023/07/18 07:26:12;;;;;;;7.40;1.42;;;;;;;16.39;81.98;100846.63;5112398;28;20496;-91
2023/07/18 07:28:38;;;;;;;7.80;1.20;;;;;;;16.46;82.58;100847.84;5111226;28;20024;-91
2023/07/18 07:31:04;;;;;;;5.57;1.30;;;;;;;16.49;80.74;100852.81;5112610;28;20027;-91
2023/07/18 07:33:30;;;;;;;10.05;1.58;;;;;;;16.60;79.98;100850.19;5112562;28;20116;-92
2023/07/18 07:35:55;;;;;;;7.97;1.20;;;;;;;16.78;78.62;100847.16;5112550;28;20102;-92
2023/07/18 07:38:20;;;;;;;7.88;0.98;;;;;;;16.93;77.69;100846.00;5112498;28;20115;-91
2023/07/18 07:40:46;;;;;;;10.00;1.38;;;;;;;16.93;77.08;100855.59;5111281;28;20465;-91
2023/07/18 07:43:11;;;;;;;5.85;1.20;;;;;;;17.15;76.56;100852.16;5112380;28;20466;-92
2023/07/18 07:45:36;;;;;;;9.50;1.25;;;;;;;17.22;76.69;100848.09;5112353;28;20027;-91
2023/07/18 07:48:02;;;;;;;7.53;1.00;;;;;;;17.46;74.67;100848.75;5111100;28;20058;-92
2023/07/18 07:50:27;;;;;;;3.30;1.05;;;;;;;18.04;72.07;100853.66;5112382;28;20020;-92
2023/07/18 07:52:53;;;;;;;6.00;1.23;;;;;;;18.72;68.29;100848.03;5112287;28;20030;-91
2023/07/18 07:55:18;;;;;;;6.43;1.08;;;;;;;18.35;67.84;100846.72;5112952;28;20027;-91
2023/07/18 07:57:44;;;;;;;6.75;1.50;;;;;;;18.29;67.59;100842.03;5112154;28;20028;-91
2023/07/18 08:00:09;;;;;;;5.13;0.82;;;;;;;18.11;67.97;100838.31;5112075;28;20024;-92
2023/07/18 08:02:35;;;;;;;10.13;1.15;;;;;;;18.20;67.16;100834.94;5112381;28;20024;-92
2023/07/18 08:05:00;;;;;;;3.58;0.82;;;;;;;18.39;67.95;100837.69;5110912;28;20072;-92
2023/07/18 08:07:26;;;;;;;5.30;1.23;;;;;;;18.65;67.27;100842.47;5112095;28;20059;-92
2023/07/18 08:09:51;;;;;;;10.85;1.00;;;;;;;18.76;66.22;100839.81;5110690;28;20416;-91
2023/07/18 08:12:16;;;;;;;7.47;1.20;;;;;;;18.71;65.57;100828.88;5112172;28;20051;-92
2023/07/18 08:14:42;;;;;;;3.83;0.65;;;;;;;18.71;65.40;100823.66;5111997;28;20541;-91
2023/07/18 08:17:08;;;;;;;2.88;0.50;;;;;;;19.12;65.38;100828.91;5110811;28;20031;-91
2023/07/18 08:19:36;;;;;;;8.90;1.23;;;;;;;19.60;63.21;100834.22;5111995;28;20028;-92
2023/07/18 08:22:02;;;;;;;5.32;0.80;;;;;;;19.99;61.75;100829.00;5112057;28;20034;-91
2023/07/18 08:24:28;;;;;;;7.25;0.98;;;;;;;20.68;58.75;100827.09;5112008;28;20533;-92
2023/07/18 08:26:53;;;;;;;7.13;0.90;;;;;;;20.85;57.84;100831.56;5111801;28;20469;-91
2023/07/18 08:29:19;;;;;;;9.13;1.05;;;;;;;20.64;58.13;100830.97;5111960;28;20031;-91
2023/07/18 08:31:44;;;;;;;6.70;0.65;;;;;;;19.65;55.02;100825.94;5111980;28;20512;-91
2023/07/18 08:34:11;;;;;;;4.10;0.65;;;;;;;20.08;55.61;100822.94;5111715;28;20091;-91
2023/07/18 08:36:36;;;;;;;4.03;0.68;;;;;;;20.31;54.32;100823.44;5110516;28;20434;-92
2023/07/18 08:39:02;;;;;;;9.07;1.05;;;;;;;20.54;54.88;100820.47;5113749;28;20023;-91
2023/07/18 08:41:28;;;;;;;4.78;0.60;;;;;;;20.66;54.28;100811.47;5115781;28;20054;-92
2023/07/18 08:43:54;;;;;;;5.03;0.77;;;;;;;20.48;53.30;100808.78;5115843;28;20081;-91
2023/07/18 08:46:20;;;;;;;2.47;0.40;;;;;;;20.18;53.18;100815.03;5115929;28;20051;-91
2023/07/18 08:48:47;;;;;;;3.03;0.40;;;;;;;19.48;51.84;100809.13;5115670;28;20469;-91
2023/07/18 08:51:14;;;;;;;2.00;0.60;;;;;;;19.30;52.21;100806.38;5114332;28;20056;-91
2023/07/18 08:53:40;;;;;;;2.90;0.65;;;;;;;19.19;51.07;100804.72;5114304;28;20537;-91
2023/07/18 08:56:08;;;;;;;1.75;0.22;;;;;;;19.17;48.92;100806.63;5114217;28;20110;-91
2023/07/18 08:58:36;;;;;;;5.00;0.30;;;;;;;19.39;49.63;100795.09;5114094;28;20457;-91
2023/07/18 09:01:02;;;;;;;6.05;0.70;;;;;;;19.52;50.72;100799.22;5114180;28;20473;-92
2023/07/18 09:03:27;;;;;;;5.80;0.85;;;;;;;19.83;52.20;100803.38;5115487;28;20072;-91
2023/07/18 09:05:53;;;;;;;2.88;0.63;;;;;;;19.36;53.54;100799.75;5115412;28;20024;-92
2023/07/18 09:08:18;;;;;;;8.25;1.35;;;;;;;19.91;52.83;100805.31;5115445;28;20023;-92
2023/07/18 09:10:45;;;;;;;2.97;0.70;;;;;;;19.98;53.72;100806.41;5115740;28;20080;-91
2023/07/18 09:13:10;;;;;;;4.22;0.80;;;;;;;20.03;51.70;100809.44;5115645;28;20027;-91
2023/07/18 09:15:37;;;;;;;10.32;0.77;;;;;;;20.16;51.78;100805.69;5115798;28;20024;-89
2023/07/18 09:18:08;;;;;;;2.70;0.30;;;;;;;20.40;51.52;100800.78;5115533;28;20470;-91
2023/07/18 09:20:34;;;;;;;4.38;0.90;;;;;;;20.00;52.51;100803.66;5113820;28;20492;-92
2023/07/18 09:23:04;;;;;;;6.07;0.95;;;;;;;20.41;51.88;100802.44;5114841;28;20016;-92
2023/07/18 09:25:30;;;;;;;3.70;0.52;;;;;;;21.05;51.70;100790.28;5114955;28;20548;-92
2023/07/18 09:27:57;;;;;;;10.07;0.80;;;;;;;20.79;51.53;100792.78;5113621;28;20114;-92
2023/07/18 09:30:36;;;;;;;5.53;0.65;;;;;;;21.33;50.94;100798.94;5113832;28;20058;-92
2023/07/18 09:33:07;;;;;;;8.00;1.58;;;;;;;21.31;52.33;100790.41;5114744;28;20019;-93
2023/07/18 09:35:38;;;;;;;4.55;1.83;;;;;;;21.80;51.80;100796.13;5114855;28;20016;-92
2023/07/18 09:38:05;;;;;;;2.40;0.75;;;;;;;22.01;51.31;100806.25;5114595;28;20027;-92
2023/07/18 09:40:31;;;;;;;3.15;0.40;;;;;;;21.93;51.47;100800.16;5114657;28;20114;-92
2023/07/18 09:42:58;;;;;;;9.13;1.67;;;;;;;21.74;52.76;100801.97;5114621;28;20102;-92
2023/07/18 09:45:24;;;;;;;2.47;0.77;;;;;;;21.72;52.11;100803.91;5114669;28;20477;-92
2023/07/18 09:47:51;;;;;;;6.38;0.88;;;;;;;21.75;52.61;100806.25;5115000;28;20038;-92
2023/07/18 09:50:16;;;;;;;5.88;0.80;;;;;;;20.92;53.56;100801.16;5114370;28;20026;-92
2023/07/18 09:52:51;;;;;;;3.33;0.63;;;;;;;21.27;52.73;100791.66;5112987;28;20487;-92
2023/07/18 09:55:26;;;;;;;4.05;0.68;;;;;;;20.80;51.35;100797.06;5114514;28;20103;-92
2023/07/18 09:57:55;;;;;;;11.45;0.80;;;;;;;21.30;52.32;100794.00;5114759;28;20051;-91
2023/07/18 10:00:22;;;;;;;5.28;0.80;;;;;;;21.16;51.93;100791.88;5114189;28;20075;-92
2023/07/18 10:02:49;;;;;;;4.57;1.25;;;;;;;20.79;52.12;100790.16;5113029;28;20032;-92
2023/07/18 10:05:15;;;;;;;9.18;2.72;;;;;;;20.58;52.24;100786.94;5113015;28;20030;-91
2023/07/18 10:07:42;;;;;;;5.05;1.35;;;;;;;20.34;52.51;100775.16;5114155;28;20027;-92
2023/07/18 10:10:09;;;;;;;7.95;0.77;;;;;;;20.92;53.15;100780.16;5114168;28;20042;-92
2023/07/18 10:12:58;;;;;;;4.70;1.83;;;;;;;21.05;52.30;100784.22;5114005;28;20108;-92
2023/07/18 10:15:25;;;;;;;6.18;0.80;;;;;;;21.00;53.43;100781.22;5114111;28;20027;-91
2023/07/18 10:17:51;;;;;;;6.20;0.93;;;;;;;20.68;53.78;100782.50;5112721;28;20346;-91
2023/07/18 10:20:22;;;;;;;4.70;0.55;;;;;;;20.90;54.08;100787.34;5112546;28;20697;-91
2023/07/18 10:22:57;;;;;;;11.87;1.40;;;;;;;20.57;54.33;100782.69;5112294;28;20024;-92
2023/07/18 10:25:23;;;;;;;5.72;0.60;;;;;;;21.24;52.58;100768.34;5112481;28;20024;-92
2023/07/18 10:27:49;;;;;;;2.60;0.80;;;;;;;21.11;52.22;100767.88;5112473;28;20024;-91
2023/07/18 10:30:17;;;;;;;2.80;0.60;;;;;;;21.53;51.70;100767.31;5113331;28;20016;-93
2023/07/18 10:32:49;;;;;;;5.95;0.80;;;;;;;22.30;50.93;100767.53;5112376;28;20024;-92
2023/07/18 10:35:16;;;;;;;4.47;0.80;;;;;;;21.93;49.41;100771.25;5113528;28;20023;-93
2023/07/18 10:37:44;;;;;;;5.32;0.85;;;;;;;22.73;49.00;100756.06;5113525;28;20031;-92
2023/07/18 10:40:10;;;;;;;4.90;0.77;;;;;;;22.90;47.69;100764.81;5113530;28;20023;-92
2023/07/18 10:42:36;;;;;;;3.22;0.70;;;;;;;23.03;45.78;100759.94;5113370;28;20020;-93
2023/07/18 10:45:03;;;;;;;4.03;0.77;;;;;;;23.15;47.32;100762.28;5113247;28;20046;-92
2023/07/18 10:47:29;;;;;;;2.08;0.60;;;;;;;22.90;48.24;100762.19;5113595;28;20023;-92
2023/07/18 10:49:56;;;;;;;4.22;0.90;;;;;;;22.22;48.31;100763.88;5112182;28;20029;-92
2023/07/18 10:52:22;;;;;;;3.90;1.00;;;;;;;22.22;48.48;100758.63;5111702;28;20016;-92
2023/07/18 10:54:56;;;;;;;5.70;1.13;;;;;;;22.68;48.62;100760.13;5112958;28;20465;-92
2023/07/18 10:57:29;;;;;;;5.05;1.05;;;;;;;22.19;49.06;100756.28;5111746;28;20072;-92
2023/07/18 10:59:55;;;;;;;3.50;1.00;;;;;;;21.98;48.90;100756.66;5113070;28;20076;-93
2023/07/18 11:02:22;;;;;;;3.08;0.73;;;;;;;21.93;50.46;100768.59;5112464;28;20262;-93
2023/07/18 11:04:48;;;;;;;2.40;0.70;;;;;;;21.89;51.29;100751.50;5112937;28;20411;-93
2023/07/18 11:07:14;;;;;;;9.95;1.13;;;;;;;21.21;50.57;100752.88;5111676;28;20051;-92
2023/07/18 11:09:40;;;;;;;5.25;0.68;;;;;;;21.46;50.24;100745.25;5111654;28;20487;-92
2023/07/18 11:12:14;;;;;;;8.55;0.70;;;;;;;21.67;49.45;100743.13;5113149;28;20020;-92
2023/07/18 11:14:40;;;;;;;4.35;0.70;;;;;;;22.31;48.88;100729.72;5112676;28;20023;-92